sensor_id;sensor_type;location;lat;lon;timestamp;P1;durP1;ratioP1;P2;durP2;ratioP2
60726;SDS011;46577;49.004;12.120;2023-03-31T00:01:57;18.40;;;8.33;;
60726;SDS011;46577;49.004;12.120;2023-03-31T00:04:23;22.70;;;9.53;;
60726;SDS011;46577;49.004;12.120;2023-03-31T00:06:50;14.60;;;7.77;;
60726;SDS011;46577;49.004;12.120;2023-03-31T00:09:18;19.53;;;10.20;;
60726;SDS011;46577;49.004;12.120;2023-03-31T00:11:45;16.40;;;8.80;;
60726;SDS011;46577;49.004;12.120;2023-03-31T00:14:12;13.73;;;8.10;;
60726;SDS011;46577;49.004;12.120;2023-03-31T00:16:37;20.37;;;9.10;;
60726;SDS011;46577;49.004;12.120;2023-03-31T00:19:03;17.70;;;8.20;;
60726;SDS011;46577;49.004;12.120;2023-03-31T00:21:30;17.10;;;9.53;;
60726;SDS011;46577;49.004;12.120;2023-03-31T00:24:04;23.30;;;9.27;;
60726;SDS011;46577;49.004;12.120;2023-03-31T00:26:31;17.07;;;9.27;;
60726;SDS011;46577;49.004;12.120;2023-03-31T00:28:58;32.13;;;9.73;;
60726;SDS011;46577;49.004;12.120;2023-03-31T00:31:24;15.57;;;9.73;;
60726;SDS011;46577;49.004;12.120;2023-03-31T00:33:51;17.23;;;8.43;;
60726;SDS011;46577;49.004;12.120;2023-03-31T00:36:18;15.27;;;8.40;;
60726;SDS011;46577;49.004;12.120;2023-03-31T00:38:54;21.30;;;9.93;;
60726;SDS011;46577;49.004;12.120;2023-03-31T00:41:23;15.73;;;9.20;;
60726;SDS011;46577;49.004;12.120;2023-03-31T00:44:06;14.40;;;8.10;;
60726;SDS011;46577;49.004;12.120;2023-03-31T00:46:33;16.07;;;8.40;;
60726;SDS011;46577;49.004;12.120;2023-03-31T00:49:11;22.10;;;9.20;;
60726;SDS011;46577;49.004;12.120;2023-03-31T00:52:14;15.47;;;9.20;;
60726;SDS011;46577;49.004;12.120;2023-03-31T00:54:50;27.03;;;9.67;;
60726;SDS011;46577;49.004;12.120;2023-03-31T00:57:20;22.77;;;10.10;;
60726;SDS011;46577;49.004;12.120;2023-03-31T01:00:09;19.60;;;10.20;;
60726;SDS011;46577;49.004;12.120;2023-03-31T01:02:45;20.50;;;10.40;;
60726;SDS011;46577;49.004;12.120;2023-03-31T01:05:22;20.37;;;10.27;;
60726;SDS011;46577;49.004;12.120;2023-03-31T01:07:52;16.50;;;10.27;;
60726;SDS011;46577;49.004;12.120;2023-03-31T01:10:20;24.40;;;10.13;;
60726;SDS011;46577;49.004;12.120;2023-03-31T01:12:47;19.07;;;10.90;;
60726;SDS011;46577;49.004;12.120;2023-03-31T01:15:16;16.63;;;9.37;;
60726;SDS011;46577;49.004;12.120;2023-03-31T01:17:42;21.73;;;9.20;;
60726;SDS011;46577;49.004;12.120;2023-03-31T01:23:15;21.10;;;9.90;;
60726;SDS011;46577;49.004;12.120;2023-03-31T01:42:45;12.30;;;8.47;;
60726;SDS011;46577;49.004;12.120;2023-03-31T01:48:11;21.70;;;11.90;;
60726;SDS011;46577;49.004;12.120;2023-03-31T01:50:52;20.37;;;11.60;;
60726;SDS011;46577;49.004;12.120;2023-03-31T01:53:36;18.00;;;11.47;;
60726;SDS011;46577;49.004;12.120;2023-03-31T01:56:37;23.20;;;13.60;;
60726;SDS011;46577;49.004;12.120;2023-03-31T01:59:09;25.73;;;12.50;;
60726;SDS011;46577;49.004;12.120;2023-03-31T02:01:55;26.97;;;12.27;;
60726;SDS011;46577;49.004;12.120;2023-03-31T02:04:29;22.37;;;12.47;;
60726;SDS011;46577;49.004;12.120;2023-03-31T02:07:01;16.03;;;11.17;;
60726;SDS011;46577;49.004;12.120;2023-03-31T02:09:34;22.10;;;11.40;;
60726;SDS011;46577;49.004;12.120;2023-03-31T02:12:03;19.17;;;11.83;;
60726;SDS011;46577;49.004;12.120;2023-03-31T02:14:32;15.60;;;10.70;;
60726;SDS011;46577;49.004;12.120;2023-03-31T02:16:59;18.07;;;10.77;;
60726;SDS011;46577;49.004;12.120;2023-03-31T02:19:31;19.60;;;11.63;;
60726;SDS011;46577;49.004;12.120;2023-03-31T02:22:01;15.50;;;11.03;;
60726;SDS011;46577;49.004;12.120;2023-03-31T02:24:29;15.70;;;10.90;;
60726;SDS011;46577;49.004;12.120;2023-03-31T02:27:00;18.77;;;10.70;;
60726;SDS011;46577;49.004;12.120;2023-03-31T02:29:31;19.33;;;10.30;;
60726;SDS011;46577;49.004;12.120;2023-03-31T02:32:00;19.20;;;11.07;;
60726;SDS011;46577;49.004;12.120;2023-03-31T02:34:28;19.53;;;12.13;;
60726;SDS011;46577;49.004;12.120;2023-03-31T02:36:53;27.90;;;11.13;;
60726;SDS011;46577;49.004;12.120;2023-03-31T02:39:30;23.67;;;12.70;;
60726;SDS011;46577;49.004;12.120;2023-03-31T02:41:59;18.63;;;12.63;;
60726;SDS011;46577;49.004;12.120;2023-03-31T02:44:31;15.60;;;10.10;;
60726;SDS011;46577;49.004;12.120;2023-03-31T02:46:58;17.93;;;11.60;;
60726;SDS011;46577;49.004;12.120;2023-03-31T02:49:23;18.20;;;11.33;;
60726;SDS011;46577;49.004;12.120;2023-03-31T02:54:44;21.03;;;11.10;;
60726;SDS011;46577;49.004;12.120;2023-03-31T02:58:12;23.67;;;10.43;;
60726;SDS011;46577;49.004;12.120;2023-03-31T03:02:58;18.73;;;10.20;;
60726;SDS011;46577;49.004;12.120;2023-03-31T03:08:31;19.23;;;11.87;;
60726;SDS011;46577;49.004;12.120;2023-03-31T03:11:50;19.70;;;11.37;;
60726;SDS011;46577;49.004;12.120;2023-03-31T03:17:09;18.10;;;12.10;;
60726;SDS011;46577;49.004;12.120;2023-03-31T03:19:40;16.40;;;11.20;;
60726;SDS011;46577;49.004;12.120;2023-03-31T03:22:06;19.67;;;12.30;;
60726;SDS011;46577;49.004;12.120;2023-03-31T03:24:32;20.43;;;13.53;;
60726;SDS011;46577;49.004;12.120;2023-03-31T03:26:58;20.40;;;12.23;;
60726;SDS011;46577;49.004;12.120;2023-03-31T03:29:24;21.10;;;12.33;;
60726;SDS011;46577;49.004;12.120;2023-03-31T03:31:51;21.33;;;13.67;;
60726;SDS011;46577;49.004;12.120;2023-03-31T03:34:16;17.93;;;11.53;;
60726;SDS011;46577;49.004;12.120;2023-03-31T03:36:44;20.43;;;12.27;;
60726;SDS011;46577;49.004;12.120;2023-03-31T03:39:10;13.93;;;11.33;;
60726;SDS011;46577;49.004;12.120;2023-03-31T03:41:36;23.00;;;12.03;;
60726;SDS011;46577;49.004;12.120;2023-03-31T03:44:01;17.83;;;11.90;;
60726;SDS011;46577;49.004;12.120;2023-03-31T03:46:27;16.77;;;12.00;;
60726;SDS011;46577;49.004;12.120;2023-03-31T03:48:53;19.27;;;12.77;;
60726;SDS011;46577;49.004;12.120;2023-03-31T03:51:19;19.00;;;12.50;;
60726;SDS011;46577;49.004;12.120;2023-03-31T03:53:45;21.30;;;13.13;;
60726;SDS011;46577;49.004;12.120;2023-03-31T03:56:11;18.20;;;12.90;;
60726;SDS011;46577;49.004;12.120;2023-03-31T03:58:36;20.43;;;13.50;;
60726;SDS011;46577;49.004;12.120;2023-03-31T04:01:02;23.03;;;14.53;;
60726;SDS011;46577;49.004;12.120;2023-03-31T04:03:28;26.07;;;13.73;;
60726;SDS011;46577;49.004;12.120;2023-03-31T04:05:55;16.50;;;12.53;;
60726;SDS011;46577;49.004;12.120;2023-03-31T04:08:20;29.63;;;12.87;;
60726;SDS011;46577;49.004;12.120;2023-03-31T04:10:47;24.53;;;12.83;;
60726;SDS011;46577;49.004;12.120;2023-03-31T04:13:17;24.60;;;13.37;;
60726;SDS011;46577;49.004;12.120;2023-03-31T04:15:43;20.90;;;13.10;;
60726;SDS011;46577;49.004;12.120;2023-03-31T04:18:10;20.33;;;12.90;;
60726;SDS011;46577;49.004;12.120;2023-03-31T04:20:42;17.83;;;12.40;;
60726;SDS011;46577;49.004;12.120;2023-03-31T04:23:09;20.07;;;12.90;;
60726;SDS011;46577;49.004;12.120;2023-03-31T04:25:34;22.73;;;14.40;;
60726;SDS011;46577;49.004;12.120;2023-03-31T04:28:02;22.17;;;14.07;;
60726;SDS011;46577;49.004;12.120;2023-03-31T04:30:31;20.13;;;13.93;;
60726;SDS011;46577;49.004;12.120;2023-03-31T04:32:58;24.83;;;14.13;;
60726;SDS011;46577;49.004;12.120;2023-03-31T04:35:26;23.73;;;14.60;;
60726;SDS011;46577;49.004;12.120;2023-03-31T04:38:06;19.90;;;13.53;;
60726;SDS011;46577;49.004;12.120;2023-03-31T04:40:32;22.90;;;14.53;;
60726;SDS011;46577;49.004;12.120;2023-03-31T04:42:59;21.37;;;14.63;;
60726;SDS011;46577;49.004;12.120;2023-03-31T04:45:25;23.13;;;13.80;;
60726;SDS011;46577;49.004;12.120;2023-03-31T04:47:51;19.90;;;14.33;;
60726;SDS011;46577;49.004;12.120;2023-03-31T04:50:16;24.87;;;14.03;;
60726;SDS011;46577;49.004;12.120;2023-03-31T04:52:42;22.00;;;14.57;;
60726;SDS011;46577;49.004;12.120;2023-03-31T04:55:08;24.60;;;12.90;;
60726;SDS011;46577;49.004;12.120;2023-03-31T04:57:34;20.10;;;12.93;;
60726;SDS011;46577;49.004;12.120;2023-03-31T05:00:01;19.03;;;13.83;;
60726;SDS011;46577;49.004;12.120;2023-03-31T05:02:31;29.27;;;15.77;;
60726;SDS011;46577;49.004;12.120;2023-03-31T05:04:56;17.73;;;14.23;;
60726;SDS011;46577;49.004;12.120;2023-03-31T05:07:22;21.13;;;12.50;;
60726;SDS011;46577;49.004;12.120;2023-03-31T05:09:48;25.73;;;14.20;;
60726;SDS011;46577;49.004;12.120;2023-03-31T05:12:13;22.80;;;13.97;;
60726;SDS011;46577;49.004;12.120;2023-03-31T05:14:39;19.90;;;13.90;;
60726;SDS011;46577;49.004;12.120;2023-03-31T05:17:04;23.17;;;15.43;;
60726;SDS011;46577;49.004;12.120;2023-03-31T05:19:30;26.37;;;16.57;;
60726;SDS011;46577;49.004;12.120;2023-03-31T05:21:56;28.70;;;16.87;;
60726;SDS011;46577;49.004;12.120;2023-03-31T05:24:21;31.23;;;16.80;;
60726;SDS011;46577;49.004;12.120;2023-03-31T05:26:47;19.33;;;14.33;;
60726;SDS011;46577;49.004;12.120;2023-03-31T05:29:17;26.53;;;15.97;;
60726;SDS011;46577;49.004;12.120;2023-03-31T05:31:43;30.30;;;15.40;;
60726;SDS011;46577;49.004;12.120;2023-03-31T05:34:09;24.33;;;15.63;;
60726;SDS011;46577;49.004;12.120;2023-03-31T05:36:35;22.37;;;16.07;;
60726;SDS011;46577;49.004;12.120;2023-03-31T05:39:01;21.97;;;14.87;;
60726;SDS011;46577;49.004;12.120;2023-03-31T05:41:28;31.10;;;16.67;;
60726;SDS011;46577;49.004;12.120;2023-03-31T05:43:54;25.93;;;16.27;;
60726;SDS011;46577;49.004;12.120;2023-03-31T05:46:20;30.80;;;18.00;;
60726;SDS011;46577;49.004;12.120;2023-03-31T05:48:46;27.07;;;15.73;;
60726;SDS011;46577;49.004;12.120;2023-03-31T05:51:11;32.03;;;17.10;;
60726;SDS011;46577;49.004;12.120;2023-03-31T05:53:37;21.90;;;15.23;;
60726;SDS011;46577;49.004;12.120;2023-03-31T05:56:03;23.67;;;14.73;;
60726;SDS011;46577;49.004;12.120;2023-03-31T05:58:34;21.23;;;14.73;;
60726;SDS011;46577;49.004;12.120;2023-03-31T06:01:01;29.53;;;15.50;;
60726;SDS011;46577;49.004;12.120;2023-03-31T06:03:35;24.63;;;14.90;;
60726;SDS011;46577;49.004;12.120;2023-03-31T06:06:05;25.87;;;15.20;;
60726;SDS011;46577;49.004;12.120;2023-03-31T06:08:32;23.23;;;14.80;;
60726;SDS011;46577;49.004;12.120;2023-03-31T06:10:58;29.17;;;15.17;;
60726;SDS011;46577;49.004;12.120;2023-03-31T06:13:24;25.03;;;16.33;;
60726;SDS011;46577;49.004;12.120;2023-03-31T06:15:57;29.13;;;14.70;;
60726;SDS011;46577;49.004;12.120;2023-03-31T06:18:25;19.07;;;13.20;;
60726;SDS011;46577;49.004;12.120;2023-03-31T06:20:52;22.67;;;13.07;;
60726;SDS011;46577;49.004;12.120;2023-03-31T06:23:18;25.87;;;13.20;;
60726;SDS011;46577;49.004;12.120;2023-03-31T06:25:44;16.97;;;11.37;;
60726;SDS011;46577;49.004;12.120;2023-03-31T06:28:10;20.70;;;13.50;;
60726;SDS011;46577;49.004;12.120;2023-03-31T06:30:36;15.93;;;12.17;;
60726;SDS011;46577;49.004;12.120;2023-03-31T06:33:01;21.73;;;11.67;;
60726;SDS011;46577;49.004;12.120;2023-03-31T06:35:27;21.00;;;11.90;;
60726;SDS011;46577;49.004;12.120;2023-03-31T06:37:53;20.33;;;11.40;;
60726;SDS011;46577;49.004;12.120;2023-03-31T06:40:19;25.97;;;12.27;;
60726;SDS011;46577;49.004;12.120;2023-03-31T06:42:44;26.43;;;13.30;;
60726;SDS011;46577;49.004;12.120;2023-03-31T06:45:10;22.47;;;13.17;;
60726;SDS011;46577;49.004;12.120;2023-03-31T06:47:35;16.00;;;11.97;;
60726;SDS011;46577;49.004;12.120;2023-03-31T06:50:05;19.10;;;11.20;;
60726;SDS011;46577;49.004;12.120;2023-03-31T06:52:32;21.70;;;12.90;;
60726;SDS011;46577;49.004;12.120;2023-03-31T06:54:58;19.50;;;10.43;;
60726;SDS011;46577;49.004;12.120;2023-03-31T06:57:25;22.63;;;12.30;;
60726;SDS011;46577;49.004;12.120;2023-03-31T06:59:51;18.10;;;11.87;;
60726;SDS011;46577;49.004;12.120;2023-03-31T07:02:16;26.03;;;11.97;;
60726;SDS011;46577;49.004;12.120;2023-03-31T07:04:42;16.30;;;10.07;;
60726;SDS011;46577;49.004;12.120;2023-03-31T07:07:08;21.20;;;10.73;;
60726;SDS011;46577;49.004;12.120;2023-03-31T07:09:33;21.67;;;12.47;;
60726;SDS011;46577;49.004;12.120;2023-03-31T07:11:59;17.77;;;9.07;;
60726;SDS011;46577;49.004;12.120;2023-03-31T07:14:25;22.00;;;9.80;;
60726;SDS011;46577;49.004;12.120;2023-03-31T07:16:51;16.20;;;10.43;;
60726;SDS011;46577;49.004;12.120;2023-03-31T07:19:17;17.53;;;9.90;;
60726;SDS011;46577;49.004;12.120;2023-03-31T07:21:43;16.57;;;10.10;;
60726;SDS011;46577;49.004;12.120;2023-03-31T07:24:08;18.27;;;9.60;;
60726;SDS011;46577;49.004;12.120;2023-03-31T07:26:34;18.30;;;10.20;;
60726;SDS011;46577;49.004;12.120;2023-03-31T07:29:00;25.90;;;9.17;;
60726;SDS011;46577;49.004;12.120;2023-03-31T07:31:25;20.37;;;9.10;;
60726;SDS011;46577;49.004;12.120;2023-03-31T07:33:51;13.90;;;8.67;;
60726;SDS011;46577;49.004;12.120;2023-03-31T07:36:17;23.83;;;9.10;;
60726;SDS011;46577;49.004;12.120;2023-03-31T07:38:43;20.83;;;11.63;;
60726;SDS011;46577;49.004;12.120;2023-03-31T07:41:14;14.77;;;9.90;;
60726;SDS011;46577;49.004;12.120;2023-03-31T07:43:41;23.73;;;10.90;;
60726;SDS011;46577;49.004;12.120;2023-03-31T07:46:21;29.37;;;12.73;;
60726;SDS011;46577;49.004;12.120;2023-03-31T07:48:48;19.50;;;11.60;;
60726;SDS011;46577;49.004;12.120;2023-03-31T07:51:19;16.53;;;10.13;;
60726;SDS011;46577;49.004;12.120;2023-03-31T07:53:47;13.33;;;9.97;;
60726;SDS011;46577;49.004;12.120;2023-03-31T07:56:16;19.90;;;11.10;;
60726;SDS011;46577;49.004;12.120;2023-03-31T07:58:43;15.97;;;11.13;;
60726;SDS011;46577;49.004;12.120;2023-03-31T08:01:12;14.60;;;9.93;;
60726;SDS011;46577;49.004;12.120;2023-03-31T08:03:41;20.20;;;10.77;;
60726;SDS011;46577;49.004;12.120;2023-03-31T08:06:07;17.93;;;10.80;;
60726;SDS011;46577;49.004;12.120;2023-03-31T08:08:32;18.20;;;10.73;;
60726;SDS011;46577;49.004;12.120;2023-03-31T08:10:58;17.63;;;9.60;;
60726;SDS011;46577;49.004;12.120;2023-03-31T08:13:23;17.27;;;10.10;;
60726;SDS011;46577;49.004;12.120;2023-03-31T08:15:50;19.50;;;10.80;;
60726;SDS011;46577;49.004;12.120;2023-03-31T08:18:15;12.93;;;9.13;;
60726;SDS011;46577;49.004;12.120;2023-03-31T08:20:41;21.03;;;10.70;;
60726;SDS011;46577;49.004;12.120;2023-03-31T08:23:07;20.83;;;10.70;;
60726;SDS011;46577;49.004;12.120;2023-03-31T08:25:35;21.53;;;11.40;;
60726;SDS011;46577;49.004;12.120;2023-03-31T08:28:02;19.53;;;11.07;;
60726;SDS011;46577;49.004;12.120;2023-03-31T08:30:28;21.03;;;11.67;;
60726;SDS011;46577;49.004;12.120;2023-03-31T08:32:53;27.13;;;11.10;;
60726;SDS011;46577;49.004;12.120;2023-03-31T08:38:41;18.57;;;11.10;;
60726;SDS011;46577;49.004;12.120;2023-03-31T08:41:57;17.90;;;11.07;;
60726;SDS011;46577;49.004;12.120;2023-03-31T08:44:16;13.10;;;9.70;;
60726;SDS011;46577;49.004;12.120;2023-03-31T08:46:49;16.87;;;11.10;;
60726;SDS011;46577;49.004;12.120;2023-03-31T08:49:18;18.97;;;11.07;;
60726;SDS011;46577;49.004;12.120;2023-03-31T08:51:47;19.23;;;11.30;;
60726;SDS011;46577;49.004;12.120;2023-03-31T08:54:29;14.67;;;11.33;;
60726;SDS011;46577;49.004;12.120;2023-03-31T08:57:02;17.33;;;11.57;;
60726;SDS011;46577;49.004;12.120;2023-03-31T08:59:36;19.53;;;12.00;;
60726;SDS011;46577;49.004;12.120;2023-03-31T09:15:38;19.20;;;12.40;;
60726;SDS011;46577;49.004;12.120;2023-03-31T09:18:27;19.20;;;12.47;;
60726;SDS011;46577;49.004;12.120;2023-03-31T09:20:54;13.97;;;11.30;;
60726;SDS011;46577;49.004;12.120;2023-03-31T09:23:33;15.30;;;11.70;;
60726;SDS011;46577;49.004;12.120;2023-03-31T09:26:05;16.87;;;12.37;;
60726;SDS011;46577;49.004;12.120;2023-03-31T09:28:50;18.73;;;12.20;;
60726;SDS011;46577;49.004;12.120;2023-03-31T09:31:18;14.50;;;11.40;;
60726;SDS011;46577;49.004;12.120;2023-03-31T09:33:46;18.20;;;10.57;;
60726;SDS011;46577;49.004;12.120;2023-03-31T09:36:15;17.40;;;11.37;;
60726;SDS011;46577;49.004;12.120;2023-03-31T09:38:44;14.97;;;9.30;;
60726;SDS011;46577;49.004;12.120;2023-03-31T09:41:10;16.90;;;10.47;;
60726;SDS011;46577;49.004;12.120;2023-03-31T09:43:38;16.47;;;9.93;;
60726;SDS011;46577;49.004;12.120;2023-03-31T09:46:15;13.13;;;9.93;;
60726;SDS011;46577;49.004;12.120;2023-03-31T09:48:54;16.47;;;8.90;;
60726;SDS011;46577;49.004;12.120;2023-03-31T09:51:31;11.87;;;8.80;;
60726;SDS011;46577;49.004;12.120;2023-03-31T09:56:46;13.47;;;9.47;;
60726;SDS011;46577;49.004;12.120;2023-03-31T09:59:30;12.17;;;9.07;;
60726;SDS011;46577;49.004;12.120;2023-03-31T10:01:59;18.57;;;9.57;;
60726;SDS011;46577;49.004;12.120;2023-03-31T10:04:29;11.50;;;8.90;;
60726;SDS011;46577;49.004;12.120;2023-03-31T10:06:59;13.30;;;8.13;;
60726;SDS011;46577;49.004;12.120;2023-03-31T10:09:26;9.30;;;8.20;;
60726;SDS011;46577;49.004;12.120;2023-03-31T10:12:36;8.77;;;7.87;;
60726;SDS011;46577;49.004;12.120;2023-03-31T10:14:49;9.57;;;7.50;;
60726;SDS011;46577;49.004;12.120;2023-03-31T10:17:21;10.60;;;6.57;;
60726;SDS011;46577;49.004;12.120;2023-03-31T10:19:51;7.27;;;5.97;;
60726;SDS011;46577;49.004;12.120;2023-03-31T10:24:46;8.63;;;5.80;;
60726;SDS011;46577;49.004;12.120;2023-03-31T10:27:23;15.93;;;4.93;;
60726;SDS011;46577;49.004;12.120;2023-03-31T10:29:57;7.27;;;5.00;;
60726;SDS011;46577;49.004;12.120;2023-03-31T10:32:28;9.70;;;5.60;;
60726;SDS011;46577;49.004;12.120;2023-03-31T10:34:56;7.13;;;4.40;;
60726;SDS011;46577;49.004;12.120;2023-03-31T10:37:27;5.73;;;4.67;;
60726;SDS011;46577;49.004;12.120;2023-03-31T10:39:59;8.70;;;4.57;;
60726;SDS011;46577;49.004;12.120;2023-03-31T10:42:33;6.87;;;4.10;;
60726;SDS011;46577;49.004;12.120;2023-03-31T10:47:52;4.03;;;3.53;;
60726;SDS011;46577;49.004;12.120;2023-03-31T10:50:19;5.23;;;3.07;;
60726;SDS011;46577;49.004;12.120;2023-03-31T10:53:00;8.47;;;3.53;;
60726;SDS011;46577;49.004;12.120;2023-03-31T10:55:32;5.90;;;3.63;;
60726;SDS011;46577;49.004;12.120;2023-03-31T10:58:16;6.13;;;4.10;;
60726;SDS011;46577;49.004;12.120;2023-03-31T11:03:54;4.60;;;3.33;;
60726;SDS011;46577;49.004;12.120;2023-03-31T11:26:14;3.50;;;2.30;;
60726;SDS011;46577;49.004;12.120;2023-03-31T11:29:05;6.50;;;2.87;;
60726;SDS011;46577;49.004;12.120;2023-03-31T11:42:07;4.80;;;1.77;;
60726;SDS011;46577;49.004;12.120;2023-03-31T11:45:26;6.27;;;2.10;;
60726;SDS011;46577;49.004;12.120;2023-03-31T11:47:49;4.63;;;1.40;;
60726;SDS011;46577;49.004;12.120;2023-03-31T11:50:23;4.87;;;1.60;;
60726;SDS011;46577;49.004;12.120;2023-03-31T11:53:04;2.27;;;1.37;;
60726;SDS011;46577;49.004;12.120;2023-03-31T11:55:41;3.33;;;2.00;;
60726;SDS011;46577;49.004;12.120;2023-03-31T11:58:14;2.10;;;1.43;;
60726;SDS011;46577;49.004;12.120;2023-03-31T12:00:51;4.63;;;2.57;;
60726;SDS011;46577;49.004;12.120;2023-03-31T12:03:32;6.73;;;2.30;;
60726;SDS011;46577;49.004;12.120;2023-03-31T12:06:17;2.37;;;1.70;;
60726;SDS011;46577;49.004;12.120;2023-03-31T12:14:33;2.70;;;1.93;;
60726;SDS011;46577;49.004;12.120;2023-03-31T12:17:11;6.43;;;1.43;;
60726;SDS011;46577;49.004;12.120;2023-03-31T12:19:46;3.77;;;1.20;;
60726;SDS011;46577;49.004;12.120;2023-03-31T12:22:23;2.80;;;1.40;;
60726;SDS011;46577;49.004;12.120;2023-03-31T12:24:52;2.10;;;1.50;;
60726;SDS011;46577;49.004;12.120;2023-03-31T12:29:56;4.37;;;1.67;;
60726;SDS011;46577;49.004;12.120;2023-03-31T12:32:26;5.23;;;1.77;;
60726;SDS011;46577;49.004;12.120;2023-03-31T12:35:03;3.13;;;1.20;;
60726;SDS011;46577;49.004;12.120;2023-03-31T12:40:38;1.57;;;1.00;;
60726;SDS011;46577;49.004;12.120;2023-03-31T12:43:24;4.00;;;1.30;;
60726;SDS011;46577;49.004;12.120;2023-03-31T12:46:05;5.67;;;1.70;;
60726;SDS011;46577;49.004;12.120;2023-03-31T12:57:19;9.07;;;1.73;;
60726;SDS011;46577;49.004;12.120;2023-03-31T13:00:08;12.83;;;1.60;;
60726;SDS011;46577;49.004;12.120;2023-03-31T13:02:36;3.43;;;1.33;;
60726;SDS011;46577;49.004;12.120;2023-03-31T13:08:08;5.13;;;1.60;;
60726;SDS011;46577;49.004;12.120;2023-03-31T13:13:18;3.07;;;1.13;;
60726;SDS011;46577;49.004;12.120;2023-03-31T13:15:54;4.87;;;1.30;;
60726;SDS011;46577;49.004;12.120;2023-03-31T13:18:21;2.70;;;1.50;;
60726;SDS011;46577;49.004;12.120;2023-03-31T13:21:01;1.57;;;0.90;;
60726;SDS011;46577;49.004;12.120;2023-03-31T13:23:30;5.00;;;1.20;;
60726;SDS011;46577;49.004;12.120;2023-03-31T13:25:59;1.90;;;1.20;;
60726;SDS011;46577;49.004;12.120;2023-03-31T13:28:46;2.90;;;1.10;;
60726;SDS011;46577;49.004;12.120;2023-03-31T13:31:59;4.37;;;1.20;;
60726;SDS011;46577;49.004;12.120;2023-03-31T13:40:00;2.50;;;1.20;;
60726;SDS011;46577;49.004;12.120;2023-03-31T13:43:07;9.03;;;1.47;;
60726;SDS011;46577;49.004;12.120;2023-03-31T13:45:49;2.10;;;0.80;;
60726;SDS011;46577;49.004;12.120;2023-03-31T13:58:18;1.60;;;0.60;;
60726;SDS011;46577;49.004;12.120;2023-03-31T14:04:15;3.07;;;0.70;;
60726;SDS011;46577;49.004;12.120;2023-03-31T14:07:09;1.27;;;0.70;;
60726;SDS011;46577;49.004;12.120;2023-03-31T14:09:41;0.90;;;0.70;;
60726;SDS011;46577;49.004;12.120;2023-03-31T14:14:45;2.43;;;1.10;;
60726;SDS011;46577;49.004;12.120;2023-03-31T14:17:11;4.70;;;1.00;;
60726;SDS011;46577;49.004;12.120;2023-03-31T14:33:28;0.83;;;0.83;;
60726;SDS011;46577;49.004;12.120;2023-03-31T14:38:53;2.57;;;0.83;;
60726;SDS011;46577;49.004;12.120;2023-03-31T14:41:25;2.20;;;0.90;;
60726;SDS011;46577;49.004;12.120;2023-03-31T14:43:57;2.83;;;1.03;;
60726;SDS011;46577;49.004;12.120;2023-03-31T14:46:28;1.67;;;0.93;;
60726;SDS011;46577;49.004;12.120;2023-03-31T14:48:56;6.60;;;0.90;;
60726;SDS011;46577;49.004;12.120;2023-03-31T14:51:26;1.43;;;1.03;;
60726;SDS011;46577;49.004;12.120;2023-03-31T14:53:59;1.00;;;0.80;;
60726;SDS011;46577;49.004;12.120;2023-03-31T14:56:30;3.20;;;1.27;;
60726;SDS011;46577;49.004;12.120;2023-03-31T14:59:00;5.93;;;1.20;;
60726;SDS011;46577;49.004;12.120;2023-03-31T15:01:28;2.70;;;0.60;;
60726;SDS011;46577;49.004;12.120;2023-03-31T15:04:06;2.80;;;1.00;;
60726;SDS011;46577;49.004;12.120;2023-03-31T15:06:37;0.63;;;0.63;;
60726;SDS011;46577;49.004;12.120;2023-03-31T15:09:05;4.17;;;0.80;;
60726;SDS011;46577;49.004;12.120;2023-03-31T15:11:34;2.80;;;0.70;;
60726;SDS011;46577;49.004;12.120;2023-03-31T15:14:00;2.77;;;1.10;;
60726;SDS011;46577;49.004;12.120;2023-03-31T15:16:30;1.37;;;0.90;;
60726;SDS011;46577;49.004;12.120;2023-03-31T15:19:19;3.93;;;1.50;;
60726;SDS011;46577;49.004;12.120;2023-03-31T15:21:52;2.10;;;0.83;;
60726;SDS011;46577;49.004;12.120;2023-03-31T15:24:20;7.40;;;1.57;;
60726;SDS011;46577;49.004;12.120;2023-03-31T15:29:34;11.23;;;1.23;;
60726;SDS011;46577;49.004;12.120;2023-03-31T15:32:03;3.53;;;1.00;;
60726;SDS011;46577;49.004;12.120;2023-03-31T15:34:32;4.87;;;1.00;;
60726;SDS011;46577;49.004;12.120;2023-03-31T15:37:00;2.27;;;1.40;;
60726;SDS011;46577;49.004;12.120;2023-03-31T15:39:30;4.60;;;1.40;;
60726;SDS011;46577;49.004;12.120;2023-03-31T15:41:57;2.77;;;1.10;;
60726;SDS011;46577;49.004;12.120;2023-03-31T15:44:44;8.03;;;1.30;;
60726;SDS011;46577;49.004;12.120;2023-03-31T15:47:51;3.53;;;1.10;;
60726;SDS011;46577;49.004;12.120;2023-03-31T15:50:19;2.27;;;0.77;;
60726;SDS011;46577;49.004;12.120;2023-03-31T15:52:50;7.30;;;1.27;;
60726;SDS011;46577;49.004;12.120;2023-03-31T15:55:24;3.80;;;1.20;;
60726;SDS011;46577;49.004;12.120;2023-03-31T15:57:51;2.27;;;0.70;;
60726;SDS011;46577;49.004;12.120;2023-03-31T16:02:56;4.20;;;0.90;;
60726;SDS011;46577;49.004;12.120;2023-03-31T16:08:09;2.80;;;1.20;;
60726;SDS011;46577;49.004;12.120;2023-03-31T16:10:42;4.80;;;1.33;;
60726;SDS011;46577;49.004;12.120;2023-03-31T16:13:09;2.87;;;1.07;;
60726;SDS011;46577;49.004;12.120;2023-03-31T16:15:41;4.77;;;1.00;;
60726;SDS011;46577;49.004;12.120;2023-03-31T16:18:11;2.00;;;0.90;;
60726;SDS011;46577;49.004;12.120;2023-03-31T16:20:49;1.00;;;0.80;;
60726;SDS011;46577;49.004;12.120;2023-03-31T16:23:18;3.50;;;1.20;;
60726;SDS011;46577;49.004;12.120;2023-03-31T16:25:50;5.73;;;1.33;;
60726;SDS011;46577;49.004;12.120;2023-03-31T16:28:17;5.73;;;0.80;;
60726;SDS011;46577;49.004;12.120;2023-03-31T16:30:46;3.53;;;0.90;;
60726;SDS011;46577;49.004;12.120;2023-03-31T16:33:14;3.47;;;1.00;;
60726;SDS011;46577;49.004;12.120;2023-03-31T16:35:43;3.83;;;0.90;;
60726;SDS011;46577;49.004;12.120;2023-03-31T16:38:14;1.43;;;0.73;;
60726;SDS011;46577;49.004;12.120;2023-03-31T16:40:42;2.57;;;1.13;;
60726;SDS011;46577;49.004;12.120;2023-03-31T16:45:45;7.97;;;1.50;;
60726;SDS011;46577;49.004;12.120;2023-03-31T16:48:16;2.20;;;1.30;;
60726;SDS011;46577;49.004;12.120;2023-03-31T16:50:46;2.80;;;1.43;;
60726;SDS011;46577;49.004;12.120;2023-03-31T16:53:17;6.90;;;1.20;;
60726;SDS011;46577;49.004;12.120;2023-03-31T16:55:47;3.50;;;0.97;;
60726;SDS011;46577;49.004;12.120;2023-03-31T16:58:13;7.00;;;1.43;;
60726;SDS011;46577;49.004;12.120;2023-03-31T17:00:39;4.40;;;1.60;;
60726;SDS011;46577;49.004;12.120;2023-03-31T17:03:06;4.30;;;1.47;;
60726;SDS011;46577;49.004;12.120;2023-03-31T17:05:36;2.00;;;1.20;;
60726;SDS011;46577;49.004;12.120;2023-03-31T17:08:03;3.60;;;1.33;;
60726;SDS011;46577;49.004;12.120;2023-03-31T17:10:29;6.00;;;1.20;;
60726;SDS011;46577;49.004;12.120;2023-03-31T17:12:55;3.57;;;1.37;;
60726;SDS011;46577;49.004;12.120;2023-03-31T17:15:20;2.17;;;1.10;;
60726;SDS011;46577;49.004;12.120;2023-03-31T17:17:47;7.67;;;2.20;;
60726;SDS011;46577;49.004;12.120;2023-03-31T17:20:13;3.50;;;1.17;;
60726;SDS011;46577;49.004;12.120;2023-03-31T17:22:38;2.53;;;0.90;;
60726;SDS011;46577;49.004;12.120;2023-03-31T17:25:04;2.70;;;1.00;;
60726;SDS011;46577;49.004;12.120;2023-03-31T17:27:31;2.43;;;1.40;;
60726;SDS011;46577;49.004;12.120;2023-03-31T17:29:57;1.80;;;1.53;;